createdAt,value
2019-03-09T00:01:03.998Z,56.67
2019-03-09T00:03:30.627Z,56.65
2019-03-09T00:05:57.492Z,56.64
2019-03-09T00:08:24.153Z,56.73
2019-03-09T00:10:50.985Z,56.68
2019-03-09T00:13:17.617Z,56.66
2019-03-09T00:15:44.316Z,56.37
2019-03-09T00:18:11.001Z,56.03
2019-03-09T00:20:37.615Z,56.31
2019-03-09T00:23:04.232Z,56.03
2019-03-09T00:25:31.123Z,56.12
2019-03-09T00:27:57.881Z,56.04
2019-03-09T00:30:24.516Z,56.35
2019-03-09T00:32:51.370Z,56.67
2019-03-09T00:35:18.283Z,57.25
2019-03-09T00:37:45.563Z,57.97
2019-03-09T00:40:12.435Z,58.14
2019-03-09T00:42:39.638Z,57.91
2019-03-09T00:45:06.604Z,58.08
2019-03-09T00:47:33.941Z,58.55
2019-03-09T00:50:01.088Z,58.77
2019-03-09T00:52:27.825Z,58.19
2019-03-09T00:54:54.425Z,57.79
2019-03-09T00:57:21.422Z,57.62
2019-03-09T00:59:48.523Z,58.17
2019-03-09T01:02:15.187Z,58.71
2019-03-09T01:04:41.808Z,58.66
2019-03-09T01:07:08.884Z,58.62
2019-03-09T01:09:35.883Z,58.36
2019-03-09T01:12:02.508Z,58.45
2019-03-09T01:14:29.366Z,58.73
2019-03-09T01:16:56.194Z,58.80
2019-03-09T01:19:22.785Z,59.26
2019-03-09T01:21:49.508Z,59.42
2019-03-09T01:24:16.688Z,59.35
2019-03-09T01:26:43.580Z,59.06
2019-03-09T01:29:12.007Z,58.79
2019-03-09T01:31:38.684Z,58.19
2019-03-09T01:34:05.495Z,58.97
2019-03-09T01:36:32.336Z,59.27
2019-03-09T01:38:59.246Z,59.13
2019-03-09T01:41:25.828Z,59.21
2019-03-09T01:43:52.647Z,59.05
2019-03-09T01:46:19.509Z,58.70
2019-03-09T01:48:46.156Z,58.81
2019-03-09T01:51:13.165Z,58.77
2019-03-09T01:53:39.920Z,58.79
2019-03-09T01:56:06.670Z,58.90
2019-03-09T01:58:33.361Z,58.40
2019-03-09T02:01:00.152Z,57.75
2019-03-09T02:03:27.196Z,58.16
2019-03-09T02:05:53.794Z,58.55
2019-03-09T02:08:20.491Z,58.37
2019-03-09T02:10:47.130Z,58.07
2019-03-09T02:13:14.107Z,58.46
2019-03-09T02:15:40.905Z,58.21
2019-03-09T02:18:07.475Z,58.27
2019-03-09T02:20:34.782Z,58.24
2019-03-09T02:23:01.708Z,58.86
2019-03-09T02:25:28.361Z,59.62
2019-03-09T02:27:55.012Z,59.55
2019-03-09T02:30:21.632Z,59.43
2019-03-09T02:32:48.378Z,60.15
2019-03-09T02:37:47.341Z,59.81
2019-03-09T02:40:15.331Z,59.53
2019-03-09T02:42:42.139Z,59.77
2019-03-09T02:45:08.788Z,60.12
2019-03-09T02:47:35.376Z,59.85
2019-03-09T02:50:02.363Z,59.16
2019-03-09T02:52:29.510Z,58.89
2019-03-09T02:54:56.195Z,58.61
2019-03-09T02:57:22.827Z,59.16
2019-03-09T02:59:49.446Z,59.73
2019-03-09T03:02:16.723Z,59.27
2019-03-09T03:04:43.374Z,58.73
2019-03-09T03:07:10.258Z,58.66
2019-03-09T03:09:37.048Z,58.67
2019-03-09T03:12:03.700Z,58.85
2019-03-09T03:14:30.701Z,59.04
2019-03-09T03:16:57.608Z,59.04
2019-03-09T03:19:24.432Z,59.10
2019-03-09T03:21:51.076Z,59.06
2019-03-09T03:24:17.888Z,58.35
2019-03-09T03:26:44.614Z,58.64
2019-03-09T03:29:11.207Z,58.58
2019-03-09T03:31:38.138Z,58.76
2019-03-09T03:34:04.883Z,58.84
2019-03-09T03:36:31.804Z,58.61
2019-03-09T03:38:58.630Z,58.16
2019-03-09T03:41:25.269Z,58.14
2019-03-09T03:43:51.972Z,57.78
2019-03-09T03:46:20.178Z,57.75
2019-03-09T03:48:46.876Z,58.01
2019-03-09T03:51:13.484Z,58.66
2019-03-09T03:53:40.396Z,58.87
2019-03-09T03:56:07.010Z,58.37
2019-03-09T03:58:33.637Z,58.42
2019-03-09T04:01:00.917Z,57.96
2019-03-09T04:03:27.769Z,58.27
2019-03-09T04:05:54.443Z,58.22
2019-03-09T04:08:21.368Z,58.29
2019-03-09T04:10:48.687Z,58.35
2019-03-09T04:13:15.290Z,58.40
2019-03-09T04:15:41.891Z,58.41
2019-03-09T04:18:08.511Z,58.34
2019-03-09T04:20:35.149Z,58.23
2019-03-09T04:23:01.809Z,57.95
2019-03-09T04:25:28.545Z,57.98
2019-03-09T04:27:55.116Z,58.51
2019-03-09T04:30:22.636Z,58.88
2019-03-09T04:35:22.633Z,58.67
2019-03-09T04:37:49.308Z,58.52
2019-03-09T04:40:16.017Z,58.27
2019-03-09T04:42:42.621Z,58.53
2019-03-09T04:45:09.343Z,59.15
2019-03-09T04:47:36.003Z,58.75
2019-03-09T04:50:02.598Z,58.60
2019-03-09T04:52:29.538Z,58.58
2019-03-09T04:54:56.877Z,58.51
2019-03-09T04:57:23.734Z,58.11
2019-03-09T04:59:50.594Z,57.73
2019-03-09T05:02:17.217Z,57.40
2019-03-09T05:04:43.823Z,57.62
2019-03-09T05:07:10.906Z,57.86
2019-03-09T05:09:37.808Z,57.94
2019-03-09T05:12:04.692Z,57.24
2019-03-09T05:14:31.330Z,58.10
2019-03-09T05:16:57.979Z,58.55
2019-03-09T05:19:25.115Z,58.76
2019-03-09T05:21:53.245Z,58.62
2019-03-09T05:24:19.970Z,58.35
2019-03-09T05:26:46.898Z,58.76
2019-03-09T05:29:13.700Z,58.14
2019-03-09T05:31:40.328Z,58.09
2019-03-09T05:34:07.257Z,57.90
2019-03-09T05:36:34.127Z,58.17
2019-03-09T05:39:01.012Z,57.75
2019-03-09T05:41:27.590Z,57.65
2019-03-09T05:43:54.202Z,57.51
2019-03-09T05:46:20.947Z,57.49
2019-03-09T05:48:47.716Z,57.61
2019-03-09T05:51:14.332Z,57.53
2019-03-09T05:53:41.590Z,57.78
2019-03-09T05:56:08.341Z,57.64
2019-03-09T05:58:35.529Z,57.62
2019-03-09T06:01:02.728Z,57.11
2019-03-09T06:03:29.343Z,56.65
2019-03-09T06:05:56.227Z,56.72
2019-03-09T06:08:23.140Z,56.43
2019-03-09T06:10:49.856Z,56.59
2019-03-09T06:13:16.727Z,56.42
2019-03-09T06:15:43.923Z,56.44
2019-03-09T06:18:10.822Z,56.92
2019-03-09T06:20:37.727Z,57.05
2019-03-09T06:25:35.992Z,57.31
2019-03-09T06:28:02.892Z,57.27
2019-03-09T06:30:29.587Z,57.18
2019-03-09T06:35:44.248Z,56.82
2019-03-09T06:38:11.961Z,57.05
2019-03-09T06:40:39.367Z,56.56
2019-03-09T06:43:06.479Z,56.84
2019-03-09T06:45:33.448Z,56.79
2019-03-09T06:50:46.370Z,55.97
2019-03-09T06:53:19.002Z,55.47
2019-03-09T06:55:45.887Z,54.77
2019-03-09T06:58:19.376Z,54.09
2019-03-09T07:00:47.086Z,53.33
2019-03-09T07:06:00.423Z,53.76
2019-03-09T07:08:27.946Z,54.51
2019-03-09T07:10:55.593Z,54.71
2019-03-09T07:13:23.173Z,54.60
2019-03-09T07:15:51.585Z,54.16
2019-03-09T07:18:18.194Z,54.12
2019-03-09T07:20:47.886Z,54.17
2019-03-09T07:23:14.638Z,54.17
2019-03-09T07:25:42.338Z,53.48
2019-03-09T07:28:10.609Z,53.19
2019-03-09T07:30:40.486Z,52.38
2019-03-09T07:33:11.614Z,52.53
2019-03-09T07:35:41.382Z,53.97
2019-03-09T07:38:08.773Z,53.82
2019-03-09T07:40:35.486Z,53.32
2019-03-09T07:43:04.371Z,53.45
2019-03-09T07:53:07.189Z,53.19
2019-03-09T07:55:33.804Z,52.38
2019-03-09T07:58:00.506Z,52.42
2019-03-09T08:00:27.327Z,52.44
2019-03-09T08:02:53.922Z,53.13
2019-03-09T08:05:23.523Z,53.93
2019-03-09T08:07:50.126Z,54.76
2019-03-09T08:10:17.443Z,55.02
2019-03-09T08:12:44.444Z,54.61
2019-03-09T08:15:14.219Z,53.37
2019-03-09T08:17:40.612Z,52.95
2019-03-09T08:20:07.883Z,52.24
2019-03-09T08:22:34.540Z,52.51
2019-03-09T08:25:03.106Z,52.23
2019-03-09T08:27:30.904Z,50.67
2019-03-09T08:30:02.717Z,51.16
2019-03-09T08:32:30.638Z,51.41
2019-03-09T08:34:57.890Z,51.30
2019-03-09T08:37:24.796Z,50.61
2019-03-09T08:39:51.970Z,52.46
2019-03-09T08:42:18.707Z,51.42
2019-03-09T08:44:45.368Z,50.60
2019-03-09T08:47:12.076Z,50.25
2019-03-09T08:49:39.783Z,50.61
2019-03-09T08:52:06.520Z,51.32
2019-03-09T08:54:33.125Z,51.09
2019-03-09T08:57:01.058Z,51.01
2019-03-09T08:59:27.726Z,50.71
2019-03-09T09:01:54.470Z,51.54
2019-03-09T09:04:21.303Z,51.03
2019-03-09T09:06:48.581Z,50.33
2019-03-09T09:09:15.242Z,49.09
2019-03-09T09:11:44.409Z,49.59
2019-03-09T09:14:11.282Z,49.37
2019-03-09T09:16:38.616Z,48.19
2019-03-09T09:19:05.806Z,50.37
2019-03-09T09:21:32.708Z,49.08
2019-03-09T09:23:59.513Z,49.67
2019-03-09T09:26:26.297Z,49.27
2019-03-09T09:28:52.952Z,48.66
2019-03-09T09:31:19.762Z,48.28
2019-03-09T09:33:47.140Z,48.09
2019-03-09T09:36:13.739Z,48.44
2019-03-09T09:38:40.921Z,48.33
2019-03-09T09:41:07.818Z,48.62
2019-03-09T09:43:35.151Z,49.41
2019-03-09T09:46:02.054Z,47.83
2019-03-09T09:48:32.347Z,47.85
2019-03-09T09:50:59.555Z,46.77
2019-03-09T09:53:26.448Z,46.66
2019-03-09T09:55:53.459Z,47.43
2019-03-09T09:58:20.089Z,47.36
2019-03-09T10:00:47.002Z,46.85
2019-03-09T10:03:13.654Z,46.95
2019-03-09T10:05:40.416Z,46.67
2019-03-09T10:08:07.133Z,45.44
2019-03-09T10:10:33.811Z,44.80
2019-03-09T10:13:00.463Z,46.41
2019-03-09T10:15:27.392Z,46.11
2019-03-09T10:17:54.308Z,47.00
2019-03-09T10:20:21.383Z,44.95
2019-03-09T10:22:48.170Z,45.60
2019-03-09T10:25:14.896Z,45.09
2019-03-09T10:27:41.758Z,46.45
2019-03-09T10:30:08.495Z,46.09
2019-03-09T10:35:18.221Z,45.62
2019-03-09T10:37:50.401Z,45.14
2019-03-09T10:40:16.723Z,45.14
2019-03-09T10:42:43.688Z,44.39
2019-03-09T10:45:12.582Z,44.63
2019-03-09T10:47:39.364Z,44.15
2019-03-09T10:50:06.271Z,43.52
2019-03-09T10:52:35.112Z,42.87
2019-03-09T10:55:02.296Z,43.04
2019-03-09T10:57:31.625Z,44.57
2019-03-09T11:00:01.640Z,45.72
2019-03-09T11:02:30.211Z,44.39
2019-03-09T11:04:57.571Z,42.93
2019-03-09T11:07:24.263Z,42.84
2019-03-09T11:09:53.013Z,42.61
2019-03-09T11:12:22.137Z,43.29
2019-03-09T11:14:50.448Z,43.83
2019-03-09T11:17:18.996Z,42.58
2019-03-09T11:19:50.514Z,45.02
2019-03-09T11:22:17.128Z,45.19
2019-03-09T11:24:44.335Z,44.23
2019-03-09T11:27:13.235Z,43.14
2019-03-09T11:29:40.398Z,44.31
2019-03-09T11:32:10.685Z,44.34
2019-03-09T11:34:39.879Z,44.23
2019-03-09T11:37:06.570Z,42.99
2019-03-09T11:39:35.772Z,42.53
2019-03-09T11:42:02.391Z,42.60
2019-03-09T11:44:31.663Z,42.04
2019-03-09T11:47:00.790Z,42.24
2019-03-09T11:49:27.735Z,39.73
2019-03-09T11:51:55.176Z,39.18
2019-03-09T11:54:21.887Z,40.41
2019-03-09T11:56:48.719Z,40.58
2019-03-09T11:59:15.702Z,38.90
2019-03-09T12:01:42.932Z,38.54
2019-03-09T12:04:10.388Z,38.75
2019-03-09T12:06:36.964Z,38.84
2019-03-09T12:09:03.850Z,38.25
2019-03-09T12:14:03.157Z,37.85
2019-03-09T12:16:30.085Z,37.54
2019-03-09T12:18:57.280Z,36.42
2019-03-09T12:21:25.260Z,36.54
2019-03-09T12:23:52.055Z,35.90
2019-03-09T12:26:19.008Z,35.96
2019-03-09T12:28:45.632Z,36.25
2019-03-09T12:33:41.442Z,35.92
2019-03-09T12:36:08.179Z,37.21
2019-03-09T12:38:35.387Z,38.68
2019-03-09T12:41:02.296Z,37.23
2019-03-09T12:43:29.486Z,37.35
2019-03-09T12:45:56.424Z,37.26
2019-03-09T12:48:23.252Z,37.16
2019-03-09T12:50:49.916Z,36.44
2019-03-09T12:53:16.563Z,37.37
2019-03-09T12:55:43.721Z,37.44
2019-03-09T12:58:10.365Z,38.30
2019-03-09T13:00:37.555Z,36.96
2019-03-09T13:03:04.829Z,36.72
2019-03-09T13:05:31.831Z,37.05
2019-03-09T13:07:58.670Z,35.26
2019-03-09T13:10:25.881Z,34.70
2019-03-09T13:12:52.562Z,33.95
2019-03-09T13:15:19.499Z,33.73
2019-03-09T13:17:46.186Z,34.64
2019-03-09T13:20:12.772Z,34.11
2019-03-09T13:22:39.999Z,32.75
2019-03-09T13:25:06.798Z,31.58
2019-03-09T13:27:33.983Z,31.14
2019-03-09T13:30:00.880Z,31.11
2019-03-09T13:32:28.136Z,31.28
2019-03-09T13:34:56.184Z,30.72
2019-03-09T13:37:22.938Z,31.19
2019-03-09T13:39:49.899Z,32.20
2019-03-09T13:42:16.560Z,32.39
2019-03-09T13:44:43.463Z,30.84
2019-03-09T13:47:11.307Z,30.12
2019-03-09T13:49:38.370Z,31.20
2019-03-09T13:52:05.307Z,31.04
2019-03-09T13:54:32.373Z,30.98
2019-03-09T13:56:59.234Z,30.47
2019-03-09T13:59:27.444Z,30.84
2019-03-09T14:01:54.350Z,32.58
2019-03-09T14:04:21.247Z,31.80
2019-03-09T14:06:47.837Z,31.16
2019-03-09T14:09:14.802Z,30.57
2019-03-09T14:11:41.720Z,31.09
2019-03-09T14:14:08.952Z,31.07
2019-03-09T14:16:35.704Z,29.75
2019-03-09T14:19:03.083Z,31.31
2019-03-09T14:21:29.986Z,30.63
2019-03-09T14:23:57.196Z,29.89
2019-03-09T14:26:23.872Z,30.27
2019-03-09T14:28:50.473Z,29.21
2019-03-09T14:33:57.241Z,29.40
2019-03-09T14:36:27.230Z,29.91
2019-03-09T14:38:53.963Z,30.10
2019-03-09T14:41:20.862Z,30.11
2019-03-09T14:43:47.460Z,29.92
2019-03-09T14:46:14.375Z,30.49
2019-03-09T14:48:41.487Z,30.38
2019-03-09T14:51:08.350Z,30.62
2019-03-09T14:53:35.594Z,30.61
2019-03-09T14:56:02.780Z,31.36
2019-03-09T14:58:29.845Z,32.08
2019-03-09T15:00:58.030Z,32.08
2019-03-09T15:03:24.750Z,31.73
2019-03-09T15:05:51.351Z,32.25
2019-03-09T15:08:18.308Z,32.57
2019-03-09T15:10:45.232Z,33.08
2019-03-09T15:13:11.896Z,32.82
2019-03-09T15:15:38.891Z,33.28
2019-03-09T15:18:11.955Z,32.59
2019-03-09T15:20:38.641Z,32.32
2019-03-09T15:23:05.306Z,33.30
2019-03-09T15:25:32.605Z,33.59
2019-03-09T15:27:59.508Z,33.15
2019-03-09T15:30:26.240Z,32.74
2019-03-09T15:32:52.939Z,32.99
2019-03-09T15:35:19.625Z,33.29
2019-03-09T15:37:46.566Z,33.90
2019-03-09T15:40:13.960Z,34.11
2019-03-09T15:42:40.721Z,34.67
2019-03-09T15:45:07.351Z,34.42
2019-03-09T15:47:34.423Z,34.03
2019-03-09T15:50:01.079Z,34.14
2019-03-09T15:52:28.475Z,34.37
2019-03-09T15:54:55.272Z,34.67
2019-03-09T15:57:22.566Z,34.52
2019-03-09T15:59:49.530Z,34.23
2019-03-09T16:02:16.393Z,34.24
2019-03-09T16:04:43.027Z,34.72
2019-03-09T16:07:09.919Z,34.34
2019-03-09T16:09:36.754Z,34.09
2019-03-09T16:12:04.824Z,34.30
2019-03-09T16:14:31.606Z,34.17
2019-03-09T16:16:58.539Z,34.63
2019-03-09T16:19:25.106Z,35.17
2019-03-09T16:21:52.016Z,35.12
2019-03-09T16:24:18.941Z,35.42
2019-03-09T16:26:45.824Z,35.45
2019-03-09T16:29:12.895Z,35.21
2019-03-09T16:34:20.074Z,35.22
2019-03-09T16:36:46.986Z,35.23
2019-03-09T16:39:13.757Z,35.71
2019-03-09T16:41:40.983Z,35.65
2019-03-09T16:44:07.853Z,35.82
2019-03-09T16:46:35.219Z,35.85
2019-03-09T16:49:01.973Z,36.08
2019-03-09T16:51:28.924Z,36.16
2019-03-09T16:53:55.547Z,36.17
2019-03-09T16:56:22.363Z,36.29
2019-03-09T16:58:49.333Z,36.37
2019-03-09T17:01:16.139Z,36.38
2019-03-09T17:03:43.391Z,36.84
2019-03-09T17:06:10.179Z,36.69
2019-03-09T17:08:37.538Z,37.60
2019-03-09T17:11:05.737Z,37.88
2019-03-09T17:13:32.762Z,37.95
2019-03-09T17:15:59.468Z,38.40
2019-03-09T17:18:26.487Z,39.11
2019-03-09T17:20:53.662Z,39.70
2019-03-09T17:23:20.543Z,39.61
2019-03-09T17:25:47.455Z,39.83
2019-03-09T17:28:14.148Z,40.06
2019-03-09T17:30:41.112Z,40.38
2019-03-09T17:33:07.890Z,40.52
2019-03-09T17:35:36.172Z,40.68
2019-03-09T17:38:02.882Z,40.63
2019-03-09T17:40:30.083Z,41.12
2019-03-09T17:42:56.748Z,41.55
2019-03-09T17:45:24.001Z,42.27
2019-03-09T17:47:51.006Z,43.16
2019-03-09T17:50:18.305Z,43.48
2019-03-09T17:52:45.232Z,43.44
2019-03-09T17:55:11.942Z,43.36
2019-03-09T17:57:38.840Z,43.53
2019-03-09T18:00:06.309Z,43.63
2019-03-09T18:02:33.503Z,43.58
2019-03-09T18:05:00.321Z,44.35
2019-03-09T18:07:41.217Z,45.01
2019-03-09T18:10:09.236Z,45.16
2019-03-09T18:12:36.668Z,45.85
2019-03-09T18:15:03.358Z,45.55
2019-03-09T18:17:30.170Z,45.33
2019-03-09T18:19:56.806Z,45.23
2019-03-09T18:22:24.263Z,45.15
2019-03-09T18:24:50.900Z,45.59
2019-03-09T18:27:19.932Z,45.53
2019-03-09T18:29:46.737Z,45.50
2019-03-09T18:32:16.623Z,45.30
2019-03-09T18:34:43.613Z,45.52
2019-03-09T18:39:54.969Z,45.61
2019-03-09T18:45:08.489Z,46.01
2019-03-09T18:47:37.190Z,47.19
2019-03-09T18:50:03.853Z,46.99
2019-03-09T18:52:30.693Z,46.53
2019-03-09T18:55:00.622Z,46.28
2019-03-09T18:57:26.999Z,46.53
2019-03-09T19:00:01.650Z,46.98
2019-03-09T19:02:28.291Z,47.23
2019-03-09T19:04:55.264Z,47.43
2019-03-09T19:07:26.333Z,47.44
2019-03-09T19:09:55.519Z,47.32
2019-03-09T19:12:25.170Z,47.37
2019-03-09T19:14:52.059Z,47.12
2019-03-09T19:17:25.280Z,47.04
2019-03-09T19:19:52.589Z,47.07
2019-03-09T19:22:19.366Z,47.15
2019-03-09T19:24:47.124Z,47.54
2019-03-09T19:27:18.002Z,46.96
2019-03-09T19:29:47.966Z,46.58
2019-03-09T19:32:14.987Z,46.19
2019-03-09T19:34:43.679Z,46.34
2019-03-09T19:37:14.723Z,46.51
2019-03-09T19:39:43.795Z,46.25
2019-03-09T19:42:11.647Z,46.29
2019-03-09T19:44:38.363Z,46.22
2019-03-09T19:47:05.050Z,46.51
2019-03-09T19:49:32.457Z,46.92
2019-03-09T19:52:02.455Z,47.88
2019-03-09T19:54:30.357Z,48.35
2019-03-09T19:56:59.592Z,47.90
2019-03-09T19:59:26.635Z,47.49
2019-03-09T20:02:07.817Z,47.28
2019-03-09T20:04:36.531Z,47.61
2019-03-09T20:07:06.012Z,48.83
2019-03-09T20:09:35.819Z,49.34
2019-03-09T20:12:02.443Z,48.93
2019-03-09T20:14:29.747Z,48.11
2019-03-09T20:16:56.587Z,47.49
2019-03-09T20:19:23.657Z,47.44
2019-03-09T20:21:52.850Z,48.02
2019-03-09T20:24:22.324Z,48.24
2019-03-09T20:26:49.233Z,48.75
2019-03-09T20:29:15.865Z,48.99
2019-03-09T20:31:46.872Z,49.05
2019-03-09T20:36:58.191Z,48.84
2019-03-09T20:39:26.139Z,49.53
2019-03-09T20:41:54.063Z,49.39
2019-03-09T20:44:21.270Z,49.42
2019-03-09T20:46:49.673Z,49.58
2019-03-09T20:49:18.654Z,49.88
2019-03-09T20:51:45.314Z,50.21
2019-03-09T20:54:12.364Z,50.23
2019-03-09T20:56:39.328Z,49.85
2019-03-09T20:59:08.280Z,49.91
2019-03-09T21:01:37.799Z,50.08
2019-03-09T21:04:06.681Z,50.37
2019-03-09T21:06:37.327Z,50.55
2019-03-09T21:09:15.422Z,50.78
2019-03-09T21:11:41.414Z,50.79
2019-03-09T21:14:08.144Z,50.07
2019-03-09T21:16:35.109Z,50.88
2019-03-09T21:21:51.712Z,50.64
2019-03-09T21:24:21.777Z,51.35
2019-03-09T21:26:49.891Z,51.48
2019-03-09T21:29:19.257Z,51.82
2019-03-09T21:31:45.884Z,52.10
2019-03-09T21:34:12.554Z,52.21
2019-03-09T21:36:45.229Z,52.21
2019-03-09T21:39:23.357Z,52.94
2019-03-09T21:41:50.166Z,53.93
2019-03-09T21:44:16.925Z,53.59
2019-03-09T21:46:46.198Z,53.79
2019-03-09T21:49:13.577Z,53.08
2019-03-09T21:51:44.455Z,53.41
2019-03-09T21:54:13.039Z,54.03
2019-03-09T21:56:40.666Z,53.82
2019-03-09T21:59:10.690Z,53.13
2019-03-09T22:01:40.446Z,52.69
2019-03-09T22:09:27.647Z,52.61
2019-03-09T22:11:54.646Z,53.41
2019-03-09T22:14:22.060Z,53.94
2019-03-09T22:16:56.286Z,53.69
2019-03-09T22:19:19.644Z,54.14
2019-03-09T22:21:49.037Z,54.88
2019-03-09T22:24:17.111Z,55.60
2019-03-09T22:26:44.487Z,55.40
2019-03-09T22:34:29.447Z,53.08
2019-03-09T22:36:56.206Z,52.92
2019-03-09T22:39:23.076Z,52.96
2019-03-09T22:41:50.129Z,53.51
2019-03-09T22:44:18.607Z,53.88
2019-03-09T22:46:45.464Z,53.85
2019-03-09T22:49:12.822Z,53.37
2019-03-09T22:51:39.504Z,53.80
2019-03-09T22:54:06.274Z,54.33
2019-03-09T22:56:33.615Z,54.33
2019-03-09T22:59:00.236Z,53.87
2019-03-09T23:01:35.237Z,54.31
2019-03-09T23:04:02.165Z,54.84
2019-03-09T23:06:29.537Z,55.33
2019-03-09T23:08:56.262Z,55.99
2019-03-09T23:11:23.238Z,55.92
2019-03-09T23:13:49.889Z,56.38
2019-03-09T23:16:16.634Z,57.46
2019-03-09T23:18:44.020Z,57.32
2019-03-09T23:21:10.927Z,56.76
2019-03-09T23:23:38.062Z,56.45
2019-03-09T23:26:04.931Z,56.19
2019-03-09T23:28:32.076Z,56.12
2019-03-09T23:31:00.194Z,56.95
2019-03-09T23:33:27.943Z,57.32
2019-03-09T23:35:54.917Z,56.94
2019-03-09T23:38:21.853Z,57.39
2019-03-09T23:40:48.904Z,59.31
2019-03-09T23:43:15.496Z,58.83
2019-03-09T23:45:42.372Z,58.52
2019-03-09T23:48:09.276Z,58.06
2019-03-09T23:50:36.273Z,57.31
2019-03-09T23:55:47.446Z,58.08
2019-03-09T23:58:14.500Z,57.83
